sensor_id;sensor_type;location;lat;lon;timestamp;P1;durP1;ratioP1;P2;durP2;ratioP2
50483;SDS011;36409;52.168;20.878;2023-04-24T00:01:58;13.17;;;7.23;;
50483;SDS011;36409;52.168;20.878;2023-04-24T00:04:32;12.20;;;7.37;;
50483;SDS011;36409;52.168;20.878;2023-04-24T00:07:05;11.93;;;7.63;;
50483;SDS011;36409;52.168;20.878;2023-04-24T00:09:38;13.32;;;7.28;;
50483;SDS011;36409;52.168;20.878;2023-04-24T00:12:12;13.25;;;7.12;;
50483;SDS011;36409;52.168;20.878;2023-04-24T00:14:48;15.57;;;7.97;;
50483;SDS011;36409;52.168;20.878;2023-04-24T00:17:20;12.03;;;7.43;;
50483;SDS011;36409;52.168;20.878;2023-04-24T00:19:54;12.33;;;7.53;;
50483;SDS011;36409;52.168;20.878;2023-04-24T00:22:28;12.13;;;8.00;;
50483;SDS011;36409;52.168;20.878;2023-04-24T00:25:02;11.03;;;7.63;;
50483;SDS011;36409;52.168;20.878;2023-04-24T00:27:36;14.47;;;8.20;;
50483;SDS011;36409;52.168;20.878;2023-04-24T00:30:11;11.80;;;7.87;;
50483;SDS011;36409;52.168;20.878;2023-04-24T00:32:44;14.23;;;7.40;;
50483;SDS011;36409;52.168;20.878;2023-04-24T00:35:18;11.23;;;7.70;;
50483;SDS011;36409;52.168;20.878;2023-04-24T00:37:51;12.53;;;7.47;;
50483;SDS011;36409;52.168;20.878;2023-04-24T00:40:24;13.25;;;7.67;;
50483;SDS011;36409;52.168;20.878;2023-04-24T00:42:57;13.07;;;7.80;;
50483;SDS011;36409;52.168;20.878;2023-04-24T00:45:30;11.47;;;7.87;;
50483;SDS011;36409;52.168;20.878;2023-04-24T00:48:02;12.17;;;7.77;;
50483;SDS011;36409;52.168;20.878;2023-04-24T00:50:36;16.00;;;8.20;;
50483;SDS011;36409;52.168;20.878;2023-04-24T00:53:11;14.80;;;7.67;;
50483;SDS011;36409;52.168;20.878;2023-04-24T00:55:47;13.27;;;7.90;;
50483;SDS011;36409;52.168;20.878;2023-04-24T00:58:20;13.43;;;8.30;;
50483;SDS011;36409;52.168;20.878;2023-04-24T01:00:53;13.97;;;8.67;;
50483;SDS011;36409;52.168;20.878;2023-04-24T01:03:28;13.03;;;8.33;;
50483;SDS011;36409;52.168;20.878;2023-04-24T01:06:03;13.40;;;7.93;;
50483;SDS011;36409;52.168;20.878;2023-04-24T01:08:37;15.00;;;8.10;;
50483;SDS011;36409;52.168;20.878;2023-04-24T01:11:12;14.20;;;8.37;;
50483;SDS011;36409;52.168;20.878;2023-04-24T01:13:47;10.47;;;7.27;;
50483;SDS011;36409;52.168;20.878;2023-04-24T01:16:20;18.03;;;8.60;;
50483;SDS011;36409;52.168;20.878;2023-04-24T01:18:53;16.00;;;8.27;;
50483;SDS011;36409;52.168;20.878;2023-04-24T01:21:26;13.77;;;8.17;;
50483;SDS011;36409;52.168;20.878;2023-04-24T01:24:01;15.20;;;7.63;;
50483;SDS011;36409;52.168;20.878;2023-04-24T01:26:36;14.43;;;7.80;;
50483;SDS011;36409;52.168;20.878;2023-04-24T01:29:10;18.00;;;8.23;;
50483;SDS011;36409;52.168;20.878;2023-04-24T01:31:46;13.70;;;9.10;;
50483;SDS011;36409;52.168;20.878;2023-04-24T01:34:19;16.07;;;8.30;;
50483;SDS011;36409;52.168;20.878;2023-04-24T01:36:52;12.90;;;8.70;;
50483;SDS011;36409;52.168;20.878;2023-04-24T01:39:25;14.93;;;8.68;;
50483;SDS011;36409;52.168;20.878;2023-04-24T01:41:58;12.90;;;7.87;;
50483;SDS011;36409;52.168;20.878;2023-04-24T01:44:32;14.65;;;8.53;;
50483;SDS011;36409;52.168;20.878;2023-04-24T01:47:06;19.05;;;8.33;;
50483;SDS011;36409;52.168;20.878;2023-04-24T01:49:38;15.17;;;8.27;;
50483;SDS011;36409;52.168;20.878;2023-04-24T01:52:14;17.50;;;8.80;;
50483;SDS011;36409;52.168;20.878;2023-04-24T01:54:49;13.30;;;8.10;;
50483;SDS011;36409;52.168;20.878;2023-04-24T01:57:26;15.23;;;9.57;;
50483;SDS011;36409;52.168;20.878;2023-04-24T02:00:00;14.00;;;8.33;;
50483;SDS011;36409;52.168;20.878;2023-04-24T02:02:42;15.30;;;8.37;;
50483;SDS011;36409;52.168;20.878;2023-04-24T02:05:18;16.80;;;9.20;;
50483;SDS011;36409;52.168;20.878;2023-04-24T02:07:51;16.67;;;8.77;;
50483;SDS011;36409;52.168;20.878;2023-04-24T02:10:25;13.60;;;8.20;;
50483;SDS011;36409;52.168;20.878;2023-04-24T02:13:00;14.90;;;8.73;;
50483;SDS011;36409;52.168;20.878;2023-04-24T02:15:34;12.28;;;8.18;;
50483;SDS011;36409;52.168;20.878;2023-04-24T02:18:06;15.33;;;8.03;;
50483;SDS011;36409;52.168;20.878;2023-04-24T02:20:39;14.73;;;9.17;;
50483;SDS011;36409;52.168;20.878;2023-04-24T02:23:15;14.43;;;8.47;;
50483;SDS011;36409;52.168;20.878;2023-04-24T02:25:48;13.67;;;8.70;;
50483;SDS011;36409;52.168;20.878;2023-04-24T02:28:22;14.20;;;8.73;;
50483;SDS011;36409;52.168;20.878;2023-04-24T02:30:57;13.38;;;7.97;;
50483;SDS011;36409;52.168;20.878;2023-04-24T02:33:29;17.73;;;8.13;;
50483;SDS011;36409;52.168;20.878;2023-04-24T02:36:04;14.43;;;8.45;;
50483;SDS011;36409;52.168;20.878;2023-04-24T02:38:37;16.05;;;8.90;;
50483;SDS011;36409;52.168;20.878;2023-04-24T02:43:45;13.80;;;8.50;;
50483;SDS011;36409;52.168;20.878;2023-04-24T02:46:17;14.15;;;8.95;;
50483;SDS011;36409;52.168;20.878;2023-04-24T02:48:50;14.53;;;9.27;;
50483;SDS011;36409;52.168;20.878;2023-04-24T02:51:25;14.60;;;8.93;;
50483;SDS011;36409;52.168;20.878;2023-04-24T02:53:58;13.57;;;9.07;;
50483;SDS011;36409;52.168;20.878;2023-04-24T02:56:32;16.17;;;9.03;;
50483;SDS011;36409;52.168;20.878;2023-04-24T02:59:06;12.60;;;8.13;;
50483;SDS011;36409;52.168;20.878;2023-04-24T03:01:40;15.93;;;8.83;;
50483;SDS011;36409;52.168;20.878;2023-04-24T03:04:14;12.17;;;8.10;;
50483;SDS011;36409;52.168;20.878;2023-04-24T03:06:50;15.53;;;9.03;;
50483;SDS011;36409;52.168;20.878;2023-04-24T03:09:24;16.20;;;9.03;;
50483;SDS011;36409;52.168;20.878;2023-04-24T03:11:57;17.83;;;9.43;;
50483;SDS011;36409;52.168;20.878;2023-04-24T03:14:32;16.30;;;9.60;;
50483;SDS011;36409;52.168;20.878;2023-04-24T03:17:05;17.07;;;8.53;;
50483;SDS011;36409;52.168;20.878;2023-04-24T03:19:38;17.57;;;9.17;;
50483;SDS011;36409;52.168;20.878;2023-04-24T03:22:12;13.80;;;8.93;;
50483;SDS011;36409;52.168;20.878;2023-04-24T03:24:45;14.90;;;9.30;;
50483;SDS011;36409;52.168;20.878;2023-04-24T03:27:19;14.20;;;9.35;;
50483;SDS011;36409;52.168;20.878;2023-04-24T03:29:57;14.93;;;9.30;;
50483;SDS011;36409;52.168;20.878;2023-04-24T03:32:40;17.17;;;9.97;;
50483;SDS011;36409;52.168;20.878;2023-04-24T03:35:17;15.23;;;9.47;;
50483;SDS011;36409;52.168;20.878;2023-04-24T03:37:51;14.87;;;9.57;;
50483;SDS011;36409;52.168;20.878;2023-04-24T03:40:42;16.30;;;9.27;;
50483;SDS011;36409;52.168;20.878;2023-04-24T03:43:41;15.23;;;9.67;;
50483;SDS011;36409;52.168;20.878;2023-04-24T03:46:15;15.70;;;9.37;;
50483;SDS011;36409;52.168;20.878;2023-04-24T03:49:04;14.73;;;8.83;;
50483;SDS011;36409;52.168;20.878;2023-04-24T03:51:41;15.70;;;8.97;;
50483;SDS011;36409;52.168;20.878;2023-04-24T03:54:19;17.17;;;9.83;;
50483;SDS011;36409;52.168;20.878;2023-04-24T03:56:53;17.80;;;10.20;;
50483;SDS011;36409;52.168;20.878;2023-04-24T03:59:26;15.13;;;9.58;;
50483;SDS011;36409;52.168;20.878;2023-04-24T04:02:23;13.87;;;8.83;;
50483;SDS011;36409;52.168;20.878;2023-04-24T04:04:56;16.20;;;9.75;;
50483;SDS011;36409;52.168;20.878;2023-04-24T04:07:32;18.20;;;10.27;;
50483;SDS011;36409;52.168;20.878;2023-04-24T04:10:06;16.70;;;9.67;;
50483;SDS011;36409;52.168;20.878;2023-04-24T04:12:39;14.50;;;8.70;;
50483;SDS011;36409;52.168;20.878;2023-04-24T04:15:14;18.03;;;9.60;;
50483;SDS011;36409;52.168;20.878;2023-04-24T04:17:47;13.57;;;8.70;;
50483;SDS011;36409;52.168;20.878;2023-04-24T04:20:20;13.27;;;8.47;;
50483;SDS011;36409;52.168;20.878;2023-04-24T04:22:53;14.83;;;8.85;;
50483;SDS011;36409;52.168;20.878;2023-04-24T04:25:36;15.80;;;8.93;;
50483;SDS011;36409;52.168;20.878;2023-04-24T04:28:17;16.33;;;8.10;;
50483;SDS011;36409;52.168;20.878;2023-04-24T04:30:52;12.97;;;8.07;;
50483;SDS011;36409;52.168;20.878;2023-04-24T04:33:25;14.53;;;7.97;;
50483;SDS011;36409;52.168;20.878;2023-04-24T04:35:58;20.97;;;8.70;;
50483;SDS011;36409;52.168;20.878;2023-04-24T04:38:37;11.37;;;7.60;;
50483;SDS011;36409;52.168;20.878;2023-04-24T04:41:23;13.27;;;7.50;;
50483;SDS011;36409;52.168;20.878;2023-04-24T04:43:55;10.73;;;7.53;;
50483;SDS011;36409;52.168;20.878;2023-04-24T04:46:29;16.60;;;7.80;;
50483;SDS011;36409;52.168;20.878;2023-04-24T04:49:11;12.77;;;7.37;;
50483;SDS011;36409;52.168;20.878;2023-04-24T04:51:47;12.90;;;7.40;;
50483;SDS011;36409;52.168;20.878;2023-04-24T04:54:22;12.00;;;8.10;;
50483;SDS011;36409;52.168;20.878;2023-04-24T04:56:55;12.50;;;7.13;;
50483;SDS011;36409;52.168;20.878;2023-04-24T04:59:28;14.47;;;7.47;;
50483;SDS011;36409;52.168;20.878;2023-04-24T05:02:09;16.83;;;7.30;;
50483;SDS011;36409;52.168;20.878;2023-04-24T05:04:42;11.43;;;7.50;;
50483;SDS011;36409;52.168;20.878;2023-04-24T05:07:16;11.67;;;7.83;;
50483;SDS011;36409;52.168;20.878;2023-04-24T05:09:53;10.03;;;6.80;;
50483;SDS011;36409;52.168;20.878;2023-04-24T05:12:26;13.35;;;7.87;;
50483;SDS011;36409;52.168;20.878;2023-04-24T05:14:59;11.33;;;7.22;;
50483;SDS011;36409;52.168;20.878;2023-04-24T05:17:32;11.38;;;6.35;;
50483;SDS011;36409;52.168;20.878;2023-04-24T05:20:06;14.07;;;7.20;;
50483;SDS011;36409;52.168;20.878;2023-04-24T05:22:41;9.27;;;6.50;;
50483;SDS011;36409;52.168;20.878;2023-04-24T05:25:15;9.23;;;6.40;;
50483;SDS011;36409;52.168;20.878;2023-04-24T05:27:54;15.73;;;7.30;;
50483;SDS011;36409;52.168;20.878;2023-04-24T05:30:27;11.75;;;6.35;;
50483;SDS011;36409;52.168;20.878;2023-04-24T05:33:00;10.03;;;6.53;;
50483;SDS011;36409;52.168;20.878;2023-04-24T05:35:35;12.70;;;7.00;;
50483;SDS011;36409;52.168;20.878;2023-04-24T05:38:15;14.73;;;6.67;;
50483;SDS011;36409;52.168;20.878;2023-04-24T05:40:49;10.57;;;6.70;;
50483;SDS011;36409;52.168;20.878;2023-04-24T05:43:23;15.50;;;7.33;;
50483;SDS011;36409;52.168;20.878;2023-04-24T05:45:57;14.53;;;7.35;;
50483;SDS011;36409;52.168;20.878;2023-04-24T05:48:30;15.53;;;6.97;;
50483;SDS011;36409;52.168;20.878;2023-04-24T05:51:03;16.97;;;7.00;;
50483;SDS011;36409;52.168;20.878;2023-04-24T05:53:37;12.60;;;7.17;;
50483;SDS011;36409;52.168;20.878;2023-04-24T05:56:10;13.90;;;7.00;;
50483;SDS011;36409;52.168;20.878;2023-04-24T05:58:43;14.45;;;7.05;;
50483;SDS011;36409;52.168;20.878;2023-04-24T06:03:53;16.23;;;6.63;;
50483;SDS011;36409;52.168;20.878;2023-04-24T06:06:29;12.93;;;6.13;;
50483;SDS011;36409;52.168;20.878;2023-04-24T06:09:05;18.30;;;7.30;;
50483;SDS011;36409;52.168;20.878;2023-04-24T06:11:38;13.37;;;7.57;;
50483;SDS011;36409;52.168;20.878;2023-04-24T06:14:12;14.37;;;7.40;;
50483;SDS011;36409;52.168;20.878;2023-04-24T06:17:03;12.53;;;7.13;;
50483;SDS011;36409;52.168;20.878;2023-04-24T06:19:42;14.53;;;7.23;;
50483;SDS011;36409;52.168;20.878;2023-04-24T06:22:20;14.33;;;7.47;;
50483;SDS011;36409;52.168;20.878;2023-04-24T06:24:55;14.87;;;7.05;;
50483;SDS011;36409;52.168;20.878;2023-04-24T06:27:27;15.67;;;7.90;;
50483;SDS011;36409;52.168;20.878;2023-04-24T06:30:04;15.87;;;6.40;;
50483;SDS011;36409;52.168;20.878;2023-04-24T06:32:38;10.93;;;6.30;;
50483;SDS011;36409;52.168;20.878;2023-04-24T06:35:11;14.57;;;7.03;;
50483;SDS011;36409;52.168;20.878;2023-04-24T06:37:44;14.03;;;6.20;;
50483;SDS011;36409;52.168;20.878;2023-04-24T06:40:17;15.35;;;7.62;;
50483;SDS011;36409;52.168;20.878;2023-04-24T06:42:50;16.90;;;7.50;;
50483;SDS011;36409;52.168;20.878;2023-04-24T06:45:22;13.47;;;7.07;;
50483;SDS011;36409;52.168;20.878;2023-04-24T06:47:54;16.77;;;7.10;;
50483;SDS011;36409;52.168;20.878;2023-04-24T06:50:27;12.73;;;6.50;;
50483;SDS011;36409;52.168;20.878;2023-04-24T06:52:59;18.83;;;7.40;;
50483;SDS011;36409;52.168;20.878;2023-04-24T06:55:32;14.70;;;6.43;;
50483;SDS011;36409;52.168;20.878;2023-04-24T07:00:37;15.90;;;6.70;;
50483;SDS011;36409;52.168;20.878;2023-04-24T07:03:12;10.63;;;7.03;;
50483;SDS011;36409;52.168;20.878;2023-04-24T07:05:46;15.90;;;6.60;;
50483;SDS011;36409;52.168;20.878;2023-04-24T07:08:22;15.17;;;7.03;;
50483;SDS011;36409;52.168;20.878;2023-04-24T07:10:55;15.80;;;6.72;;
50483;SDS011;36409;52.168;20.878;2023-04-24T07:13:27;14.30;;;6.63;;
50483;SDS011;36409;52.168;20.878;2023-04-24T07:16:00;14.97;;;6.60;;
50483;SDS011;36409;52.168;20.878;2023-04-24T07:18:33;14.35;;;6.37;;
50483;SDS011;36409;52.168;20.878;2023-04-24T07:21:07;18.43;;;6.90;;
50483;SDS011;36409;52.168;20.878;2023-04-24T07:23:40;15.10;;;6.67;;
50483;SDS011;36409;52.168;20.878;2023-04-24T07:26:13;15.87;;;7.53;;
50483;SDS011;36409;52.168;20.878;2023-04-24T07:28:46;11.63;;;5.85;;
50483;SDS011;36409;52.168;20.878;2023-04-24T07:31:19;13.13;;;6.90;;
50483;SDS011;36409;52.168;20.878;2023-04-24T07:33:51;11.60;;;7.00;;
50483;SDS011;36409;52.168;20.878;2023-04-24T07:36:28;15.00;;;6.73;;
50483;SDS011;36409;52.168;20.878;2023-04-24T07:39:03;13.77;;;6.77;;
50483;SDS011;36409;52.168;20.878;2023-04-24T07:41:38;12.98;;;6.62;;
50483;SDS011;36409;52.168;20.878;2023-04-24T07:44:12;18.53;;;6.73;;
50483;SDS011;36409;52.168;20.878;2023-04-24T07:46:46;16.37;;;6.43;;
50483;SDS011;36409;52.168;20.878;2023-04-24T07:49:21;13.03;;;6.70;;
50483;SDS011;36409;52.168;20.878;2023-04-24T07:51:54;17.93;;;7.20;;
50483;SDS011;36409;52.168;20.878;2023-04-24T07:54:26;13.50;;;5.60;;
50483;SDS011;36409;52.168;20.878;2023-04-24T07:56:59;11.63;;;6.83;;
50483;SDS011;36409;52.168;20.878;2023-04-24T07:59:32;11.57;;;6.40;;
50483;SDS011;36409;52.168;20.878;2023-04-24T08:02:04;12.93;;;6.30;;
50483;SDS011;36409;52.168;20.878;2023-04-24T08:04:37;11.90;;;6.37;;
50483;SDS011;36409;52.168;20.878;2023-04-24T08:07:12;18.47;;;7.10;;
50483;SDS011;36409;52.168;20.878;2023-04-24T08:12:20;12.17;;;6.03;;
50483;SDS011;36409;52.168;20.878;2023-04-24T08:14:53;14.40;;;6.40;;
50483;SDS011;36409;52.168;20.878;2023-04-24T08:17:26;10.83;;;6.60;;
50483;SDS011;36409;52.168;20.878;2023-04-24T08:20:00;13.03;;;5.73;;
50483;SDS011;36409;52.168;20.878;2023-04-24T08:22:34;15.37;;;6.13;;
50483;SDS011;36409;52.168;20.878;2023-04-24T08:25:08;14.37;;;5.87;;
50483;SDS011;36409;52.168;20.878;2023-04-24T08:27:41;13.47;;;6.67;;
50483;SDS011;36409;52.168;20.878;2023-04-24T08:30:14;13.22;;;6.90;;
50483;SDS011;36409;52.168;20.878;2023-04-24T08:32:48;19.27;;;6.17;;
50483;SDS011;36409;52.168;20.878;2023-04-24T08:35:21;10.57;;;6.20;;
50483;SDS011;36409;52.168;20.878;2023-04-24T08:37:54;12.70;;;6.10;;
50483;SDS011;36409;52.168;20.878;2023-04-24T08:40:28;12.00;;;6.57;;
50483;SDS011;36409;52.168;20.878;2023-04-24T08:43:04;10.17;;;6.03;;
50483;SDS011;36409;52.168;20.878;2023-04-24T08:45:37;13.17;;;7.37;;
50483;SDS011;36409;52.168;20.878;2023-04-24T08:48:12;13.40;;;6.33;;
50483;SDS011;36409;52.168;20.878;2023-04-24T08:50:58;12.73;;;6.97;;
50483;SDS011;36409;52.168;20.878;2023-04-24T08:53:33;18.83;;;7.10;;
50483;SDS011;36409;52.168;20.878;2023-04-24T08:56:06;9.65;;;6.30;;
50483;SDS011;36409;52.168;20.878;2023-04-24T08:58:40;10.35;;;5.85;;
50483;SDS011;36409;52.168;20.878;2023-04-24T09:01:15;14.90;;;7.57;;
50483;SDS011;36409;52.168;20.878;2023-04-24T09:03:51;11.93;;;6.43;;
50483;SDS011;36409;52.168;20.878;2023-04-24T09:06:27;10.67;;;6.17;;
50483;SDS011;36409;52.168;20.878;2023-04-24T09:09:04;14.53;;;6.77;;
50483;SDS011;36409;52.168;20.878;2023-04-24T09:11:37;15.67;;;5.47;;
50483;SDS011;36409;52.168;20.878;2023-04-24T09:14:11;14.43;;;5.70;;
50483;SDS011;36409;52.168;20.878;2023-04-24T09:21:52;12.57;;;6.10;;
50483;SDS011;36409;52.168;20.878;2023-04-24T09:26:58;9.23;;;5.80;;
50483;SDS011;36409;52.168;20.878;2023-04-24T09:29:32;10.50;;;5.90;;
50483;SDS011;36409;52.168;20.878;2023-04-24T09:32:19;8.93;;;5.40;;
50483;SDS011;36409;52.168;20.878;2023-04-24T09:35:06;10.07;;;4.87;;
50483;SDS011;36409;52.168;20.878;2023-04-24T09:37:42;11.47;;;5.03;;
50483;SDS011;36409;52.168;20.878;2023-04-24T09:40:16;10.60;;;4.70;;
50483;SDS011;36409;52.168;20.878;2023-04-24T09:42:52;9.80;;;4.73;;
50483;SDS011;36409;52.168;20.878;2023-04-24T09:45:28;6.73;;;4.30;;
50483;SDS011;36409;52.168;20.878;2023-04-24T09:48:09;10.83;;;5.23;;
50483;SDS011;36409;52.168;20.878;2023-04-24T09:50:42;10.67;;;5.07;;
50483;SDS011;36409;52.168;20.878;2023-04-24T09:53:19;8.73;;;5.13;;
50483;SDS011;36409;52.168;20.878;2023-04-24T09:55:56;9.87;;;4.67;;
50483;SDS011;36409;52.168;20.878;2023-04-24T09:58:38;11.23;;;5.10;;
50483;SDS011;36409;52.168;20.878;2023-04-24T10:01:13;8.40;;;4.30;;
50483;SDS011;36409;52.168;20.878;2023-04-24T10:03:48;9.70;;;4.20;;
50483;SDS011;36409;52.168;20.878;2023-04-24T10:06:21;12.07;;;5.57;;
50483;SDS011;36409;52.168;20.878;2023-04-24T10:09:01;8.37;;;4.80;;
50483;SDS011;36409;52.168;20.878;2023-04-24T10:11:35;8.73;;;4.33;;
50483;SDS011;36409;52.168;20.878;2023-04-24T10:14:14;7.70;;;4.30;;
50483;SDS011;36409;52.168;20.878;2023-04-24T10:16:48;8.40;;;4.67;;
50483;SDS011;36409;52.168;20.878;2023-04-24T10:19:23;9.83;;;5.00;;
50483;SDS011;36409;52.168;20.878;2023-04-24T10:21:58;10.40;;;4.90;;
50483;SDS011;36409;52.168;20.878;2023-04-24T10:24:31;8.27;;;4.13;;
50483;SDS011;36409;52.168;20.878;2023-04-24T10:27:05;6.70;;;4.13;;
50483;SDS011;36409;52.168;20.878;2023-04-24T10:32:09;6.47;;;4.77;;
50483;SDS011;36409;52.168;20.878;2023-04-24T10:34:43;10.67;;;4.93;;
50483;SDS011;36409;52.168;20.878;2023-04-24T10:39:48;8.17;;;4.43;;
50483;SDS011;36409;52.168;20.878;2023-04-24T10:42:25;8.57;;;4.37;;
50483;SDS011;36409;52.168;20.878;2023-04-24T10:45:00;6.27;;;3.90;;
50483;SDS011;36409;52.168;20.878;2023-04-24T10:47:53;9.67;;;4.50;;
50483;SDS011;36409;52.168;20.878;2023-04-24T10:50:43;7.60;;;4.50;;
50483;SDS011;36409;52.168;20.878;2023-04-24T10:53:19;8.80;;;4.60;;
50483;SDS011;36409;52.168;20.878;2023-04-24T10:55:57;6.40;;;4.10;;
50483;SDS011;36409;52.168;20.878;2023-04-24T10:58:40;14.80;;;5.00;;
50483;SDS011;36409;52.168;20.878;2023-04-24T11:01:24;6.90;;;4.00;;
50483;SDS011;36409;52.168;20.878;2023-04-24T11:03:59;7.90;;;3.70;;
50483;SDS011;36409;52.168;20.878;2023-04-24T11:06:34;6.93;;;3.53;;
50483;SDS011;36409;52.168;20.878;2023-04-24T11:09:08;8.73;;;3.60;;
50483;SDS011;36409;52.168;20.878;2023-04-24T11:11:46;8.37;;;4.00;;
50483;SDS011;36409;52.168;20.878;2023-04-24T11:14:19;10.40;;;4.20;;
50483;SDS011;36409;52.168;20.878;2023-04-24T11:16:52;6.97;;;3.80;;
50483;SDS011;36409;52.168;20.878;2023-04-24T11:19:27;9.10;;;3.87;;
50483;SDS011;36409;52.168;20.878;2023-04-24T11:22:01;6.93;;;3.90;;
50483;SDS011;36409;52.168;20.878;2023-04-24T11:24:38;7.53;;;4.20;;
50483;SDS011;36409;52.168;20.878;2023-04-24T11:27:23;6.60;;;4.03;;
50483;SDS011;36409;52.168;20.878;2023-04-24T11:30:00;7.33;;;4.40;;
50483;SDS011;36409;52.168;20.878;2023-04-24T11:32:36;10.00;;;4.50;;
50483;SDS011;36409;52.168;20.878;2023-04-24T11:35:12;9.50;;;4.17;;
50483;SDS011;36409;52.168;20.878;2023-04-24T11:37:47;6.53;;;4.40;;
50483;SDS011;36409;52.168;20.878;2023-04-24T11:40:41;11.57;;;4.40;;
50483;SDS011;36409;52.168;20.878;2023-04-24T11:43:16;10.33;;;4.43;;
50483;SDS011;36409;52.168;20.878;2023-04-24T11:45:50;9.43;;;5.30;;
50483;SDS011;36409;52.168;20.878;2023-04-24T11:48:23;9.13;;;4.87;;
50483;SDS011;36409;52.168;20.878;2023-04-24T11:50:56;8.35;;;4.75;;
50483;SDS011;36409;52.168;20.878;2023-04-24T11:53:32;7.07;;;4.50;;
50483;SDS011;36409;52.168;20.878;2023-04-24T11:56:06;10.10;;;4.60;;
50483;SDS011;36409;52.168;20.878;2023-04-24T11:58:41;7.47;;;4.60;;
50483;SDS011;36409;52.168;20.878;2023-04-24T12:01:14;12.30;;;4.63;;
50483;SDS011;36409;52.168;20.878;2023-04-24T12:03:49;7.00;;;4.50;;
50483;SDS011;36409;52.168;20.878;2023-04-24T12:06:30;9.73;;;4.07;;
50483;SDS011;36409;52.168;20.878;2023-04-24T12:09:03;8.85;;;4.20;;
50483;SDS011;36409;52.168;20.878;2023-04-24T12:11:53;9.75;;;4.50;;
50483;SDS011;36409;52.168;20.878;2023-04-24T12:14:27;10.43;;;4.70;;
50483;SDS011;36409;52.168;20.878;2023-04-24T12:16:59;8.37;;;4.40;;
50483;SDS011;36409;52.168;20.878;2023-04-24T12:19:36;9.83;;;4.90;;
50483;SDS011;36409;52.168;20.878;2023-04-24T12:22:16;11.13;;;4.80;;
50483;SDS011;36409;52.168;20.878;2023-04-24T12:24:59;9.98;;;5.37;;
50483;SDS011;36409;52.168;20.878;2023-04-24T12:27:32;8.05;;;4.40;;
50483;SDS011;36409;52.168;20.878;2023-04-24T12:30:09;7.87;;;4.70;;
50483;SDS011;36409;52.168;20.878;2023-04-24T12:32:45;9.20;;;5.07;;
50483;SDS011;36409;52.168;20.878;2023-04-24T12:35:23;10.87;;;4.53;;
50483;SDS011;36409;52.168;20.878;2023-04-24T12:37:59;50.73;;;6.70;;
50483;SDS011;36409;52.168;20.878;2023-04-24T12:40:38;41.93;;;5.03;;
50483;SDS011;36409;52.168;20.878;2023-04-24T12:43:15;30.03;;;4.27;;
50483;SDS011;36409;52.168;20.878;2023-04-24T12:45:48;56.40;;;5.70;;
50483;SDS011;36409;52.168;20.878;2023-04-24T12:48:22;21.07;;;3.87;;
50483;SDS011;36409;52.168;20.878;2023-04-24T12:50:55;25.17;;;5.27;;
50483;SDS011;36409;52.168;20.878;2023-04-24T12:53:31;28.60;;;4.30;;
50483;SDS011;36409;52.168;20.878;2023-04-24T12:56:06;19.43;;;3.47;;
50483;SDS011;36409;52.168;20.878;2023-04-24T12:58:39;36.27;;;5.37;;
50483;SDS011;36409;52.168;20.878;2023-04-24T13:01:12;16.50;;;3.20;;
50483;SDS011;36409;52.168;20.878;2023-04-24T13:03:46;19.10;;;3.40;;
50483;SDS011;36409;52.168;20.878;2023-04-24T13:06:18;25.05;;;3.70;;
50483;SDS011;36409;52.168;20.878;2023-04-24T13:08:56;9.53;;;2.90;;
50483;SDS011;36409;52.168;20.878;2023-04-24T13:11:28;6.23;;;2.60;;
50483;SDS011;36409;52.168;20.878;2023-04-24T13:14:01;13.97;;;2.90;;
50483;SDS011;36409;52.168;20.878;2023-04-24T13:16:33;11.93;;;2.73;;
50483;SDS011;36409;52.168;20.878;2023-04-24T13:19:16;8.73;;;3.07;;
50483;SDS011;36409;52.168;20.878;2023-04-24T13:21:48;11.37;;;3.20;;
50483;SDS011;36409;52.168;20.878;2023-04-24T13:24:21;5.92;;;2.75;;
50483;SDS011;36409;52.168;20.878;2023-04-24T13:26:55;5.40;;;2.80;;
50483;SDS011;36409;52.168;20.878;2023-04-24T13:29:29;7.70;;;3.33;;
50483;SDS011;36409;52.168;20.878;2023-04-24T13:32:02;10.40;;;2.60;;
50483;SDS011;36409;52.168;20.878;2023-04-24T13:34:35;8.65;;;3.00;;
50483;SDS011;36409;52.168;20.878;2023-04-24T13:37:08;6.63;;;2.27;;
50483;SDS011;36409;52.168;20.878;2023-04-24T13:39:51;5.03;;;2.43;;
50483;SDS011;36409;52.168;20.878;2023-04-24T13:42:27;5.63;;;2.80;;
50483;SDS011;36409;52.168;20.878;2023-04-24T13:45:00;4.33;;;2.30;;
50483;SDS011;36409;52.168;20.878;2023-04-24T13:47:55;9.57;;;3.10;;
50483;SDS011;36409;52.168;20.878;2023-04-24T13:50:32;6.53;;;2.37;;
50483;SDS011;36409;52.168;20.878;2023-04-24T13:53:05;4.60;;;2.57;;
50483;SDS011;36409;52.168;20.878;2023-04-24T13:55:37;7.17;;;2.73;;
50483;SDS011;36409;52.168;20.878;2023-04-24T13:58:11;5.30;;;2.87;;
50483;SDS011;36409;52.168;20.878;2023-04-24T14:00:45;4.63;;;2.73;;
50483;SDS011;36409;52.168;20.878;2023-04-24T14:03:20;7.00;;;2.80;;
50483;SDS011;36409;52.168;20.878;2023-04-24T14:05:53;8.43;;;2.73;;
50483;SDS011;36409;52.168;20.878;2023-04-24T14:08:27;6.15;;;2.87;;
50483;SDS011;36409;52.168;20.878;2023-04-24T14:10:59;4.97;;;2.77;;
50483;SDS011;36409;52.168;20.878;2023-04-24T14:13:32;9.38;;;3.22;;
50483;SDS011;36409;52.168;20.878;2023-04-24T14:16:06;5.35;;;2.90;;
50483;SDS011;36409;52.168;20.878;2023-04-24T14:18:40;5.33;;;2.80;;
50483;SDS011;36409;52.168;20.878;2023-04-24T14:21:14;9.77;;;3.37;;
50483;SDS011;36409;52.168;20.878;2023-04-24T14:23:46;8.27;;;3.07;;
50483;SDS011;36409;52.168;20.878;2023-04-24T14:26:20;5.03;;;2.55;;
50483;SDS011;36409;52.168;20.878;2023-04-24T14:28:54;8.57;;;3.20;;
50483;SDS011;36409;52.168;20.878;2023-04-24T14:31:43;5.50;;;2.80;;
50483;SDS011;36409;52.168;20.878;2023-04-24T14:34:18;9.60;;;2.70;;
50483;SDS011;36409;52.168;20.878;2023-04-24T14:36:51;11.80;;;2.77;;
50483;SDS011;36409;52.168;20.878;2023-04-24T14:39:26;4.27;;;2.27;;
50483;SDS011;36409;52.168;20.878;2023-04-24T14:41:59;5.43;;;2.57;;
50483;SDS011;36409;52.168;20.878;2023-04-24T14:44:37;5.63;;;2.73;;
50483;SDS011;36409;52.168;20.878;2023-04-24T14:47:11;5.47;;;2.97;;
50483;SDS011;36409;52.168;20.878;2023-04-24T14:49:46;5.83;;;2.52;;
50483;SDS011;36409;52.168;20.878;2023-04-24T14:52:19;4.40;;;2.53;;
50483;SDS011;36409;52.168;20.878;2023-04-24T14:54:52;5.17;;;2.83;;
50483;SDS011;36409;52.168;20.878;2023-04-24T14:57:24;5.80;;;2.80;;
50483;SDS011;36409;52.168;20.878;2023-04-24T14:59:57;4.80;;;2.80;;
50483;SDS011;36409;52.168;20.878;2023-04-24T15:02:30;6.72;;;3.10;;
50483;SDS011;36409;52.168;20.878;2023-04-24T15:05:04;6.37;;;2.50;;
50483;SDS011;36409;52.168;20.878;2023-04-24T15:07:38;7.80;;;2.90;;
50483;SDS011;36409;52.168;20.878;2023-04-24T15:10:13;6.97;;;2.83;;
50483;SDS011;36409;52.168;20.878;2023-04-24T15:15:18;6.10;;;3.10;;
50483;SDS011;36409;52.168;20.878;2023-04-24T15:17:51;5.33;;;2.40;;
50483;SDS011;36409;52.168;20.878;2023-04-24T15:20:24;7.10;;;3.00;;
50483;SDS011;36409;52.168;20.878;2023-04-24T15:22:57;6.10;;;2.50;;
50483;SDS011;36409;52.168;20.878;2023-04-24T15:25:33;4.80;;;2.77;;
50483;SDS011;36409;52.168;20.878;2023-04-24T15:28:07;6.30;;;2.57;;
50483;SDS011;36409;52.168;20.878;2023-04-24T15:30:40;5.23;;;2.60;;
50483;SDS011;36409;52.168;20.878;2023-04-24T15:33:14;4.70;;;2.47;;
50483;SDS011;36409;52.168;20.878;2023-04-24T15:35:47;6.07;;;2.83;;
50483;SDS011;36409;52.168;20.878;2023-04-24T15:38:20;4.92;;;2.47;;